sensor_id;sensor_type;location;lat;lon;timestamp;P1;durP1;ratioP1;P2;durP2;ratioP2
11211;SDS011;5663;50.864;12.096;2023-10-13T00:00:38;5.60;;;4.50;;
11211;SDS011;5663;50.864;12.096;2023-10-13T00:03:10;10.47;;;5.90;;
11211;SDS011;5663;50.864;12.096;2023-10-13T00:05:42;8.67;;;4.97;;
11211;SDS011;5663;50.864;12.096;2023-10-13T00:08:15;7.23;;;5.73;;
11211;SDS011;5663;50.864;12.096;2023-10-13T00:10:45;7.63;;;5.80;;
11211;SDS011;5663;50.864;12.096;2023-10-13T00:13:22;6.37;;;4.97;;
11211;SDS011;5663;50.864;12.096;2023-10-13T00:15:53;6.63;;;4.63;;
11211;SDS011;5663;50.864;12.096;2023-10-13T00:18:30;8.40;;;4.60;;
11211;SDS011;5663;50.864;12.096;2023-10-13T00:21:02;10.53;;;4.47;;
11211;SDS011;5663;50.864;12.096;2023-10-13T00:23:42;6.93;;;4.93;;
11211;SDS011;5663;50.864;12.096;2023-10-13T00:26:19;6.57;;;4.17;;
11211;SDS011;5663;50.864;12.096;2023-10-13T00:28:52;10.63;;;4.80;;
11211;SDS011;5663;50.864;12.096;2023-10-13T00:31:35;7.53;;;4.60;;
11211;SDS011;5663;50.864;12.096;2023-10-13T00:34:15;6.43;;;4.27;;
11211;SDS011;5663;50.864;12.096;2023-10-13T00:36:51;5.77;;;4.40;;
11211;SDS011;5663;50.864;12.096;2023-10-13T00:39:40;6.77;;;4.73;;
11211;SDS011;5663;50.864;12.096;2023-10-13T00:42:12;6.90;;;4.37;;
11211;SDS011;5663;50.864;12.096;2023-10-13T00:44:45;9.23;;;4.93;;
11211;SDS011;5663;50.864;12.096;2023-10-13T00:47:15;6.33;;;5.10;;
11211;SDS011;5663;50.864;12.096;2023-10-13T00:50:00;10.23;;;4.70;;
11211;SDS011;5663;50.864;12.096;2023-10-13T00:52:30;8.30;;;5.30;;
11211;SDS011;5663;50.864;12.096;2023-10-13T00:55:02;8.33;;;4.90;;
11211;SDS011;5663;50.864;12.096;2023-10-13T00:57:35;7.97;;;4.70;;
11211;SDS011;5663;50.864;12.096;2023-10-13T01:00:03;4.90;;;4.40;;
11211;SDS011;5663;50.864;12.096;2023-10-13T01:02:43;6.33;;;4.83;;
11211;SDS011;5663;50.864;12.096;2023-10-13T01:05:13;11.33;;;5.10;;
11211;SDS011;5663;50.864;12.096;2023-10-13T01:07:47;7.63;;;4.47;;
11211;SDS011;5663;50.864;12.096;2023-10-13T01:10:23;7.83;;;4.70;;
11211;SDS011;5663;50.864;12.096;2023-10-13T01:12:57;8.57;;;4.97;;
11211;SDS011;5663;50.864;12.096;2023-10-13T01:15:33;8.33;;;5.37;;
11211;SDS011;5663;50.864;12.096;2023-10-13T01:18:08;8.73;;;5.03;;
11211;SDS011;5663;50.864;12.096;2023-10-13T01:20:37;10.47;;;4.83;;
11211;SDS011;5663;50.864;12.096;2023-10-13T01:23:20;7.43;;;5.20;;
11211;SDS011;5663;50.864;12.096;2023-10-13T01:25:52;7.63;;;5.43;;
11211;SDS011;5663;50.864;12.096;2023-10-13T01:28:22;6.87;;;4.83;;
11211;SDS011;5663;50.864;12.096;2023-10-13T01:30:51;8.00;;;4.70;;
11211;SDS011;5663;50.864;12.096;2023-10-13T01:33:20;5.80;;;4.40;;
11211;SDS011;5663;50.864;12.096;2023-10-13T01:35:58;8.03;;;4.93;;
11211;SDS011;5663;50.864;12.096;2023-10-13T01:38:34;8.77;;;5.00;;
11211;SDS011;5663;50.864;12.096;2023-10-13T01:41:05;6.93;;;4.53;;
11211;SDS011;5663;50.864;12.096;2023-10-13T01:43:37;4.40;;;3.93;;
11211;SDS011;5663;50.864;12.096;2023-10-13T01:46:09;8.73;;;5.17;;
11211;SDS011;5663;50.864;12.096;2023-10-13T01:48:45;7.57;;;5.07;;
11211;SDS011;5663;50.864;12.096;2023-10-13T01:51:13;9.50;;;4.77;;
11211;SDS011;5663;50.864;12.096;2023-10-13T01:53:45;7.83;;;5.10;;
11211;SDS011;5663;50.864;12.096;2023-10-13T01:56:21;7.67;;;5.07;;
11211;SDS011;5663;50.864;12.096;2023-10-13T01:58:52;6.30;;;4.63;;
11211;SDS011;5663;50.864;12.096;2023-10-13T02:01:22;10.67;;;5.43;;
11211;SDS011;5663;50.864;12.096;2023-10-13T02:04:01;8.37;;;5.40;;
11211;SDS011;5663;50.864;12.096;2023-10-13T02:06:34;10.97;;;5.30;;
11211;SDS011;5663;50.864;12.096;2023-10-13T02:09:11;8.60;;;4.60;;
11211;SDS011;5663;50.864;12.096;2023-10-13T02:11:42;8.63;;;5.27;;
11211;SDS011;5663;50.864;12.096;2023-10-13T02:14:29;7.80;;;5.23;;
11211;SDS011;5663;50.864;12.096;2023-10-13T02:17:17;7.83;;;5.60;;
11211;SDS011;5663;50.864;12.096;2023-10-13T02:19:50;8.47;;;6.37;;
11211;SDS011;5663;50.864;12.096;2023-10-13T02:22:23;11.10;;;6.63;;
11211;SDS011;5663;50.864;12.096;2023-10-13T02:24:55;9.40;;;5.90;;
11211;SDS011;5663;50.864;12.096;2023-10-13T02:27:35;11.00;;;6.27;;
11211;SDS011;5663;50.864;12.096;2023-10-13T02:30:14;9.77;;;7.17;;
11211;SDS011;5663;50.864;12.096;2023-10-13T02:32:50;8.37;;;6.17;;
11211;SDS011;5663;50.864;12.096;2023-10-13T02:35:19;7.10;;;5.50;;
11211;SDS011;5663;50.864;12.096;2023-10-13T02:37:55;7.20;;;6.07;;
11211;SDS011;5663;50.864;12.096;2023-10-13T02:40:30;11.93;;;6.50;;
11211;SDS011;5663;50.864;12.096;2023-10-13T02:43:07;9.97;;;6.60;;
11211;SDS011;5663;50.864;12.096;2023-10-13T02:45:37;8.37;;;6.73;;
11211;SDS011;5663;50.864;12.096;2023-10-13T02:48:07;10.50;;;7.30;;
11211;SDS011;5663;50.864;12.096;2023-10-13T02:50:39;8.33;;;6.50;;
11211;SDS011;5663;50.864;12.096;2023-10-13T02:53:13;9.77;;;6.83;;
11211;SDS011;5663;50.864;12.096;2023-10-13T02:55:52;12.50;;;6.50;;
11211;SDS011;5663;50.864;12.096;2023-10-13T02:58:40;7.00;;;5.80;;
11211;SDS011;5663;50.864;12.096;2023-10-13T03:01:17;9.50;;;6.60;;
11211;SDS011;5663;50.864;12.096;2023-10-13T03:03:58;10.77;;;6.77;;
11211;SDS011;5663;50.864;12.096;2023-10-13T03:06:43;14.40;;;7.17;;
11211;SDS011;5663;50.864;12.096;2023-10-13T03:09:14;13.67;;;6.73;;
11211;SDS011;5663;50.864;12.096;2023-10-13T03:11:46;8.37;;;6.47;;
11211;SDS011;5663;50.864;12.096;2023-10-13T03:14:18;13.17;;;7.00;;
11211;SDS011;5663;50.864;12.096;2023-10-13T03:17:01;9.77;;;7.17;;
11211;SDS011;5663;50.864;12.096;2023-10-13T03:19:46;13.00;;;6.27;;
11211;SDS011;5663;50.864;12.096;2023-10-13T03:22:33;11.47;;;6.83;;
11211;SDS011;5663;50.864;12.096;2023-10-13T03:25:18;10.80;;;7.17;;
11211;SDS011;5663;50.864;12.096;2023-10-13T03:27:58;11.07;;;7.20;;
11211;SDS011;5663;50.864;12.096;2023-10-13T03:30:34;7.87;;;6.33;;
11211;SDS011;5663;50.864;12.096;2023-10-13T03:33:22;13.33;;;6.90;;
11211;SDS011;5663;50.864;12.096;2023-10-13T03:36:02;7.97;;;6.50;;
11211;SDS011;5663;50.864;12.096;2023-10-13T03:38:38;9.57;;;7.20;;
11211;SDS011;5663;50.864;12.096;2023-10-13T03:41:24;12.10;;;7.23;;
11211;SDS011;5663;50.864;12.096;2023-10-13T03:44:01;12.07;;;6.93;;
11211;SDS011;5663;50.864;12.096;2023-10-13T03:46:44;10.57;;;7.40;;
11211;SDS011;5663;50.864;12.096;2023-10-13T03:49:29;11.73;;;6.90;;
11211;SDS011;5663;50.864;12.096;2023-10-13T03:52:15;13.27;;;7.50;;
11211;SDS011;5663;50.864;12.096;2023-10-13T03:54:49;7.97;;;6.20;;
11211;SDS011;5663;50.864;12.096;2023-10-13T03:57:20;11.10;;;7.30;;
11211;SDS011;5663;50.864;12.096;2023-10-13T04:00:00;9.97;;;6.00;;
11211;SDS011;5663;50.864;12.096;2023-10-13T04:02:44;13.07;;;7.57;;
11211;SDS011;5663;50.864;12.096;2023-10-13T04:05:25;10.57;;;7.17;;
11211;SDS011;5663;50.864;12.096;2023-10-13T04:08:11;10.40;;;7.63;;
11211;SDS011;5663;50.864;12.096;2023-10-13T04:11:02;12.50;;;8.13;;
11211;SDS011;5663;50.864;12.096;2023-10-13T04:14:06;12.30;;;8.03;;
11211;SDS011;5663;50.864;12.096;2023-10-13T04:17:04;16.23;;;8.40;;
11211;SDS011;5663;50.864;12.096;2023-10-13T04:19:44;15.37;;;8.37;;
11211;SDS011;5663;50.864;12.096;2023-10-13T04:22:25;12.20;;;8.57;;
11211;SDS011;5663;50.864;12.096;2023-10-13T04:25:18;12.30;;;7.77;;
11211;SDS011;5663;50.864;12.096;2023-10-13T04:28:02;13.97;;;8.40;;
11211;SDS011;5663;50.864;12.096;2023-10-13T04:31:05;14.50;;;7.67;;
11211;SDS011;5663;50.864;12.096;2023-10-13T04:33:57;14.97;;;8.20;;
11211;SDS011;5663;50.864;12.096;2023-10-13T04:36:30;11.20;;;8.97;;
11211;SDS011;5663;50.864;12.096;2023-10-13T04:39:34;11.23;;;8.80;;
11211;SDS011;5663;50.864;12.096;2023-10-13T04:42:23;14.40;;;8.20;;
11211;SDS011;5663;50.864;12.096;2023-10-13T04:45:23;10.67;;;7.60;;
11211;SDS011;5663;50.864;12.096;2023-10-13T04:48:25;12.30;;;7.93;;
11211;SDS011;5663;50.864;12.096;2023-10-13T04:51:00;15.20;;;8.60;;
11211;SDS011;5663;50.864;12.096;2023-10-13T04:54:18;12.87;;;8.23;;
11211;SDS011;5663;50.864;12.096;2023-10-13T04:57:12;14.33;;;7.80;;
11211;SDS011;5663;50.864;12.096;2023-10-13T05:00:05;14.63;;;8.20;;
11211;SDS011;5663;50.864;12.096;2023-10-13T05:03:12;17.87;;;9.03;;
11211;SDS011;5663;50.864;12.096;2023-10-13T05:06:15;10.30;;;7.27;;
11211;SDS011;5663;50.864;12.096;2023-10-13T05:09:11;10.13;;;7.63;;
11211;SDS011;5663;50.864;12.096;2023-10-13T05:12:07;13.27;;;8.20;;
11211;SDS011;5663;50.864;12.096;2023-10-13T05:15:01;14.60;;;8.00;;
11211;SDS011;5663;50.864;12.096;2023-10-13T05:18:05;12.27;;;7.13;;
11211;SDS011;5663;50.864;12.096;2023-10-13T05:21:02;11.30;;;6.97;;
11211;SDS011;5663;50.864;12.096;2023-10-13T05:24:07;15.83;;;7.27;;
11211;SDS011;5663;50.864;12.096;2023-10-13T05:27:21;13.20;;;7.40;;
11211;SDS011;5663;50.864;12.096;2023-10-13T05:30:13;9.47;;;6.77;;
11211;SDS011;5663;50.864;12.096;2023-10-13T05:33:17;13.77;;;7.27;;
11211;SDS011;5663;50.864;12.096;2023-10-13T05:36:20;15.40;;;7.50;;
11211;SDS011;5663;50.864;12.096;2023-10-13T05:39:32;11.80;;;7.10;;
11211;SDS011;5663;50.864;12.096;2023-10-13T05:42:20;9.40;;;6.27;;
11211;SDS011;5663;50.864;12.096;2023-10-13T05:45:18;9.80;;;7.23;;
11211;SDS011;5663;50.864;12.096;2023-10-13T05:48:00;10.47;;;7.40;;
11211;SDS011;5663;50.864;12.096;2023-10-13T05:50:39;9.77;;;6.10;;
11211;SDS011;5663;50.864;12.096;2023-10-13T05:53:57;10.03;;;6.63;;
11211;SDS011;5663;50.864;12.096;2023-10-13T05:57:08;14.63;;;6.67;;
11211;SDS011;5663;50.864;12.096;2023-10-13T05:59:57;10.17;;;6.33;;
11211;SDS011;5663;50.864;12.096;2023-10-13T06:02:48;13.47;;;6.60;;
11211;SDS011;5663;50.864;12.096;2023-10-13T06:05:51;14.07;;;6.57;;
11211;SDS011;5663;50.864;12.096;2023-10-13T06:08:39;8.73;;;6.20;;
11211;SDS011;5663;50.864;12.096;2023-10-13T06:11:43;11.20;;;6.60;;
11211;SDS011;5663;50.864;12.096;2023-10-13T06:14:47;9.47;;;6.17;;
11211;SDS011;5663;50.864;12.096;2023-10-13T06:17:53;11.70;;;5.97;;
11211;SDS011;5663;50.864;12.096;2023-10-13T06:20:57;9.83;;;5.53;;
11211;SDS011;5663;50.864;12.096;2023-10-13T06:23:55;9.63;;;6.47;;
11211;SDS011;5663;50.864;12.096;2023-10-13T06:26:40;9.40;;;6.03;;
11211;SDS011;5663;50.864;12.096;2023-10-13T06:29:44;12.37;;;6.10;;
11211;SDS011;5663;50.864;12.096;2023-10-13T06:32:33;9.83;;;5.67;;
11211;SDS011;5663;50.864;12.096;2023-10-13T06:35:12;8.03;;;5.53;;
11211;SDS011;5663;50.864;12.096;2023-10-13T06:37:49;8.90;;;5.70;;
11211;SDS011;5663;50.864;12.096;2023-10-13T06:40:35;7.93;;;5.70;;
11211;SDS011;5663;50.864;12.096;2023-10-13T06:43:23;13.13;;;6.90;;
11211;SDS011;5663;50.864;12.096;2023-10-13T06:46:00;12.23;;;6.33;;
11211;SDS011;5663;50.864;12.096;2023-10-13T06:48:33;11.87;;;6.57;;
11211;SDS011;5663;50.864;12.096;2023-10-13T06:51:09;9.03;;;6.10;;
11211;SDS011;5663;50.864;12.096;2023-10-13T06:54:01;9.73;;;5.90;;
11211;SDS011;5663;50.864;12.096;2023-10-13T06:59:08;8.67;;;5.63;;
11211;SDS011;5663;50.864;12.096;2023-10-13T07:01:57;7.90;;;5.87;;
11211;SDS011;5663;50.864;12.096;2023-10-13T07:04:54;6.80;;;5.63;;
11211;SDS011;5663;50.864;12.096;2023-10-13T07:07:38;12.17;;;6.70;;
11211;SDS011;5663;50.864;12.096;2023-10-13T07:10:17;10.23;;;6.40;;
11211;SDS011;5663;50.864;12.096;2023-10-13T07:12:49;9.10;;;6.10;;
11211;SDS011;5663;50.864;12.096;2023-10-13T07:15:28;9.47;;;6.17;;
11211;SDS011;5663;50.864;12.096;2023-10-13T07:18:15;12.63;;;6.10;;
11211;SDS011;5663;50.864;12.096;2023-10-13T07:20:53;9.80;;;5.97;;
11211;SDS011;5663;50.864;12.096;2023-10-13T07:23:40;10.03;;;6.10;;
11211;SDS011;5663;50.864;12.096;2023-10-13T07:26:34;9.33;;;6.37;;
11211;SDS011;5663;50.864;12.096;2023-10-13T07:29:26;10.93;;;5.77;;
11211;SDS011;5663;50.864;12.096;2023-10-13T07:32:00;10.17;;;5.97;;
11211;SDS011;5663;50.864;12.096;2023-10-13T07:34:51;9.60;;;5.93;;
11211;SDS011;5663;50.864;12.096;2023-10-13T07:37:23;10.03;;;6.20;;
11211;SDS011;5663;50.864;12.096;2023-10-13T07:40:13;9.43;;;6.37;;
11211;SDS011;5663;50.864;12.096;2023-10-13T07:43:23;8.27;;;6.20;;
11211;SDS011;5663;50.864;12.096;2023-10-13T07:45:55;9.23;;;6.23;;
11211;SDS011;5663;50.864;12.096;2023-10-13T07:48:43;8.83;;;5.87;;
11211;SDS011;5663;50.864;12.096;2023-10-13T07:51:29;7.20;;;5.47;;
11211;SDS011;5663;50.864;12.096;2023-10-13T07:54:18;11.73;;;7.00;;
11211;SDS011;5663;50.864;12.096;2023-10-13T07:57:05;7.90;;;6.03;;
11211;SDS011;5663;50.864;12.096;2023-10-13T07:59:52;10.50;;;5.87;;
11211;SDS011;5663;50.864;12.096;2023-10-13T08:02:36;9.80;;;6.13;;
11211;SDS011;5663;50.864;12.096;2023-10-13T08:05:15;9.00;;;6.43;;
11211;SDS011;5663;50.864;12.096;2023-10-13T08:07:56;10.37;;;6.00;;
11211;SDS011;5663;50.864;12.096;2023-10-13T08:10:48;8.87;;;5.73;;
11211;SDS011;5663;50.864;12.096;2023-10-13T08:13:25;8.07;;;5.70;;
11211;SDS011;5663;50.864;12.096;2023-10-13T08:16:11;10.50;;;6.13;;
11211;SDS011;5663;50.864;12.096;2023-10-13T08:19:04;9.90;;;6.00;;
11211;SDS011;5663;50.864;12.096;2023-10-13T08:21:52;9.90;;;5.63;;
11211;SDS011;5663;50.864;12.096;2023-10-13T08:24:23;10.10;;;6.47;;
11211;SDS011;5663;50.864;12.096;2023-10-13T08:27:14;9.43;;;6.10;;
11211;SDS011;5663;50.864;12.096;2023-10-13T08:30:20;9.30;;;5.73;;
11211;SDS011;5663;50.864;12.096;2023-10-13T08:33:06;9.40;;;5.67;;
11211;SDS011;5663;50.864;12.096;2023-10-13T08:35:43;13.30;;;6.43;;
11211;SDS011;5663;50.864;12.096;2023-10-13T08:38:34;8.13;;;5.70;;
11211;SDS011;5663;50.864;12.096;2023-10-13T08:41:35;12.47;;;6.43;;
11211;SDS011;5663;50.864;12.096;2023-10-13T08:44:39;12.17;;;6.23;;
11211;SDS011;5663;50.864;12.096;2023-10-13T08:47:29;9.43;;;6.70;;
11211;SDS011;5663;50.864;12.096;2023-10-13T08:50:23;11.83;;;6.53;;
11211;SDS011;5663;50.864;12.096;2023-10-13T08:53:31;12.87;;;6.10;;
11211;SDS011;5663;50.864;12.096;2023-10-13T08:56:36;13.68;;;6.68;;
11211;SDS011;5663;50.864;12.096;2023-10-13T08:59:19;11.60;;;6.53;;
11211;SDS011;5663;50.864;12.096;2023-10-13T09:02:15;10.33;;;6.37;;
11211;SDS011;5663;50.864;12.096;2023-10-13T09:05:02;13.93;;;6.47;;
11211;SDS011;5663;50.864;12.096;2023-10-13T09:07:49;8.82;;;5.80;;
11211;SDS011;5663;50.864;12.096;2023-10-13T09:10:35;11.95;;;6.10;;
11211;SDS011;5663;50.864;12.096;2023-10-13T09:13:33;11.20;;;5.85;;
11211;SDS011;5663;50.864;12.096;2023-10-13T09:16:11;6.22;;;5.10;;
11211;SDS011;5663;50.864;12.096;2023-10-13T09:19:08;12.70;;;5.80;;
11211;SDS011;5663;50.864;12.096;2023-10-13T09:21:38;11.57;;;5.50;;
11211;SDS011;5663;50.864;12.096;2023-10-13T09:24:14;8.00;;;5.50;;
11211;SDS011;5663;50.864;12.096;2023-10-13T09:26:57;16.10;;;6.45;;
11211;SDS011;5663;50.864;12.096;2023-10-13T09:29:54;8.55;;;5.38;;
11211;SDS011;5663;50.864;12.096;2023-10-13T09:32:40;8.20;;;5.53;;
11211;SDS011;5663;50.864;12.096;2023-10-13T09:35:22;7.60;;;4.97;;
11211;SDS011;5663;50.864;12.096;2023-10-13T09:37:53;12.30;;;5.00;;
11211;SDS011;5663;50.864;12.096;2023-10-13T09:40:22;11.43;;;5.47;;
11211;SDS011;5663;50.864;12.096;2023-10-13T09:42:59;8.25;;;5.13;;
11211;SDS011;5663;50.864;12.096;2023-10-13T09:46:05;8.85;;;4.88;;
11211;SDS011;5663;50.864;12.096;2023-10-13T09:48:43;11.52;;;5.20;;
11211;SDS011;5663;50.864;12.096;2023-10-13T09:51:14;11.52;;;5.07;;
11211;SDS011;5663;50.864;12.096;2023-10-13T09:53:47;7.35;;;4.72;;
11211;SDS011;5663;50.864;12.096;2023-10-13T09:56:21;13.40;;;5.03;;
11211;SDS011;5663;50.864;12.096;2023-10-13T09:58:55;10.20;;;5.32;;
11211;SDS011;5663;50.864;12.096;2023-10-13T10:01:52;10.07;;;4.85;;
11211;SDS011;5663;50.864;12.096;2023-10-13T10:04:30;7.80;;;4.72;;
11211;SDS011;5663;50.864;12.096;2023-10-13T10:07:09;7.80;;;4.50;;
11211;SDS011;5663;50.864;12.096;2023-10-13T10:09:36;7.82;;;4.43;;
11211;SDS011;5663;50.864;12.096;2023-10-13T10:12:16;7.40;;;4.40;;
11211;SDS011;5663;50.864;12.096;2023-10-13T10:15:17;11.73;;;4.68;;
11211;SDS011;5663;50.864;12.096;2023-10-13T10:17:57;10.90;;;4.40;;
11211;SDS011;5663;50.864;12.096;2023-10-13T10:20:29;9.68;;;4.55;;
11211;SDS011;5663;50.864;12.096;2023-10-13T10:23:25;10.18;;;4.53;;
11211;SDS011;5663;50.864;12.096;2023-10-13T10:26:09;11.63;;;4.15;;
11211;SDS011;5663;50.864;12.096;2023-10-13T10:31:18;11.82;;;4.88;;
11211;SDS011;5663;50.864;12.096;2023-10-13T10:33:49;14.20;;;5.30;;
11211;SDS011;5663;50.864;12.096;2023-10-13T10:36:35;12.68;;;4.82;;
11211;SDS011;5663;50.864;12.096;2023-10-13T10:39:13;7.57;;;4.35;;
11211;SDS011;5663;50.864;12.096;2023-10-13T10:41:48;9.02;;;4.80;;
11211;SDS011;5663;50.864;12.096;2023-10-13T10:44:19;8.82;;;4.75;;
11211;SDS011;5663;50.864;12.096;2023-10-13T10:47:10;8.23;;;4.22;;
11211;SDS011;5663;50.864;12.096;2023-10-13T10:50:03;7.63;;;4.68;;
11211;SDS011;5663;50.864;12.096;2023-10-13T10:53:10;11.93;;;4.90;;
11211;SDS011;5663;50.864;12.096;2023-10-13T10:55:45;9.95;;;4.78;;
11211;SDS011;5663;50.864;12.096;2023-10-13T10:58:14;9.00;;;4.57;;
11211;SDS011;5663;50.864;12.096;2023-10-13T11:01:31;9.57;;;4.70;;
11211;SDS011;5663;50.864;12.096;2023-10-13T11:04:30;8.57;;;4.38;;
11211;SDS011;5663;50.864;12.096;2023-10-13T11:07:01;10.98;;;4.78;;
11211;SDS011;5663;50.864;12.096;2023-10-13T11:09:30;8.73;;;4.93;;
11211;SDS011;5663;50.864;12.096;2023-10-13T11:12:22;9.25;;;4.57;;
11211;SDS011;5663;50.864;12.096;2023-10-13T11:15:00;12.57;;;5.20;;
11211;SDS011;5663;50.864;12.096;2023-10-13T11:17:33;9.68;;;4.22;;
11211;SDS011;5663;50.864;12.096;2023-10-13T11:20:10;12.23;;;4.80;;
11211;SDS011;5663;50.864;12.096;2023-10-13T11:23:10;12.45;;;5.10;;
11211;SDS011;5663;50.864;12.096;2023-10-13T11:25:38;9.80;;;4.38;;
11211;SDS011;5663;50.864;12.096;2023-10-13T11:28:12;7.35;;;4.88;;
11211;SDS011;5663;50.864;12.096;2023-10-13T11:31:11;7.75;;;4.45;;
11211;SDS011;5663;50.864;12.096;2023-10-13T11:34:03;8.63;;;4.57;;
11211;SDS011;5663;50.864;12.096;2023-10-13T11:36:51;14.68;;;5.18;;
11211;SDS011;5663;50.864;12.096;2023-10-13T11:39:19;9.70;;;4.75;;
11211;SDS011;5663;50.864;12.096;2023-10-13T11:42:06;8.40;;;4.10;;
11211;SDS011;5663;50.864;12.096;2023-10-13T11:44:56;11.27;;;4.78;;
11211;SDS011;5663;50.864;12.096;2023-10-13T11:47:59;9.82;;;4.68;;
11211;SDS011;5663;50.864;12.096;2023-10-13T11:50:42;9.80;;;4.78;;
11211;SDS011;5663;50.864;12.096;2023-10-13T11:53:15;9.98;;;4.90;;
11211;SDS011;5663;50.864;12.096;2023-10-13T11:56:01;9.32;;;4.75;;
11211;SDS011;5663;50.864;12.096;2023-10-13T11:58:36;10.60;;;4.80;;
11211;SDS011;5663;50.864;12.096;2023-10-13T12:01:24;11.48;;;5.00;;
11211;SDS011;5663;50.864;12.096;2023-10-13T12:04:39;8.65;;;4.70;;
11211;SDS011;5663;50.864;12.096;2023-10-13T12:07:41;8.90;;;4.80;;
11211;SDS011;5663;50.864;12.096;2023-10-13T12:10:24;8.60;;;4.80;;
11211;SDS011;5663;50.864;12.096;2023-10-13T12:13:20;10.38;;;4.70;;
11211;SDS011;5663;50.864;12.096;2023-10-13T12:16:07;12.88;;;4.55;;
11211;SDS011;5663;50.864;12.096;2023-10-13T12:19:04;9.38;;;4.72;;
11211;SDS011;5663;50.864;12.096;2023-10-13T12:21:50;11.38;;;4.68;;
11211;SDS011;5663;50.864;12.096;2023-10-13T12:24:41;9.68;;;5.03;;
11211;SDS011;5663;50.864;12.096;2023-10-13T12:27:45;13.50;;;5.20;;
11211;SDS011;5663;50.864;12.096;2023-10-13T12:30:37;11.15;;;5.03;;
11211;SDS011;5663;50.864;12.096;2023-10-13T12:33:20;15.13;;;5.13;;
11211;SDS011;5663;50.864;12.096;2023-10-13T12:36:32;7.18;;;4.78;;
11211;SDS011;5663;50.864;12.096;2023-10-13T12:39:28;9.00;;;4.85;;
11211;SDS011;5663;50.864;12.096;2023-10-13T12:42:47;11.55;;;4.60;;
11211;SDS011;5663;50.864;12.096;2023-10-13T12:45:38;11.57;;;4.90;;
11211;SDS011;5663;50.864;12.096;2023-10-13T12:48:45;10.50;;;4.80;;
11211;SDS011;5663;50.864;12.096;2023-10-13T12:52:11;7.43;;;4.80;;
11211;SDS011;5663;50.864;12.096;2023-10-13T12:55:05;8.32;;;4.65;;
11211;SDS011;5663;50.864;12.096;2023-10-13T12:58:00;10.85;;;4.65;;
11211;SDS011;5663;50.864;12.096;2023-10-13T13:00:33;11.45;;;4.75;;
11211;SDS011;5663;50.864;12.096;2023-10-13T13:03:22;10.02;;;5.03;;
11211;SDS011;5663;50.864;12.096;2023-10-13T13:06:06;10.38;;;4.90;;
11211;SDS011;5663;50.864;12.096;2023-10-13T13:08:55;9.40;;;5.00;;
11211;SDS011;5663;50.864;12.096;2023-10-13T13:11:42;10.13;;;5.10;;
11211;SDS011;5663;50.864;12.096;2023-10-13T13:14:50;8.00;;;4.75;;
11211;SDS011;5663;50.864;12.096;2023-10-13T13:17:39;8.73;;;4.75;;
11211;SDS011;5663;50.864;12.096;2023-10-13T13:20:17;9.82;;;4.90;;
11211;SDS011;5663;50.864;12.096;2023-10-13T13:22:58;7.60;;;4.68;;
11211;SDS011;5663;50.864;12.096;2023-10-13T13:25:34;11.63;;;5.07;;
11211;SDS011;5663;50.864;12.096;2023-10-13T13:28:29;8.43;;;4.82;;
11211;SDS011;5663;50.864;12.096;2023-10-13T13:31:27;8.15;;;4.45;;
11211;SDS011;5663;50.864;12.096;2023-10-13T13:33:58;10.23;;;4.80;;
11211;SDS011;5663;50.864;12.096;2023-10-13T13:36:46;10.05;;;5.32;;
11211;SDS011;5663;50.864;12.096;2023-10-13T13:39:39;11.70;;;4.35;;
11211;SDS011;5663;50.864;12.096;2023-10-13T13:42:25;7.45;;;4.82;;
11211;SDS011;5663;50.864;12.096;2023-10-13T13:45:16;8.60;;;4.70;;
11211;SDS011;5663;50.864;12.096;2023-10-13T13:48:04;8.80;;;5.05;;
11211;SDS011;5663;50.864;12.096;2023-10-13T13:50:37;9.15;;;4.70;;
11211;SDS011;5663;50.864;12.096;2023-10-13T13:53:25;6.10;;;4.75;;
11211;SDS011;5663;50.864;12.096;2023-10-13T13:56:04;8.02;;;4.45;;
11211;SDS011;5663;50.864;12.096;2023-10-13T13:58:38;7.28;;;4.68;;
11211;SDS011;5663;50.864;12.096;2023-10-13T14:01:15;8.68;;;4.43;;
11211;SDS011;5663;50.864;12.096;2023-10-13T14:03:49;9.80;;;4.95;;
11211;SDS011;5663;50.864;12.096;2023-10-13T14:06:19;8.07;;;4.05;;
11211;SDS011;5663;50.864;12.096;2023-10-13T14:09:01;9.82;;;4.70;;
11211;SDS011;5663;50.864;12.096;2023-10-13T14:11:40;8.52;;;4.57;;
11211;SDS011;5663;50.864;12.096;2023-10-13T14:14:32;9.00;;;4.38;;
11211;SDS011;5663;50.864;12.096;2023-10-13T14:17:02;8.40;;;4.60;;
11211;SDS011;5663;50.864;12.096;2023-10-13T14:19:38;6.45;;;4.13;;
11211;SDS011;5663;50.864;12.096;2023-10-13T14:22:07;8.10;;;4.50;;
11211;SDS011;5663;50.864;12.096;2023-10-13T14:24:55;5.78;;;3.72;;
11211;SDS011;5663;50.864;12.096;2023-10-13T14:27:31;10.70;;;4.50;;
11211;SDS011;5663;50.864;12.096;2023-10-13T14:30:03;8.95;;;4.70;;
11211;SDS011;5663;50.864;12.096;2023-10-13T14:32:40;5.95;;;4.38;;
11211;SDS011;5663;50.864;12.096;2023-10-13T14:35:13;7.28;;;4.05;;
11211;SDS011;5663;50.864;12.096;2023-10-13T14:37:43;8.55;;;4.50;;
11211;SDS011;5663;50.864;12.096;2023-10-13T14:40:20;9.00;;;4.47;;
11211;SDS011;5663;50.864;12.096;2023-10-13T14:43:12;8.05;;;4.35;;
11211;SDS011;5663;50.864;12.096;2023-10-13T14:45:42;10.95;;;4.60;;
11211;SDS011;5663;50.864;12.096;2023-10-13T14:48:28;9.48;;;4.70;;
11211;SDS011;5663;50.864;12.096;2023-10-13T14:51:01;12.20;;;4.50;;
11211;SDS011;5663;50.864;12.096;2023-10-13T14:53:34;7.50;;;3.90;;
11211;SDS011;5663;50.864;12.096;2023-10-13T14:56:05;6.60;;;4.32;;
11211;SDS011;5663;50.864;12.096;2023-10-13T14:58:58;7.93;;;4.30;;
11211;SDS011;5663;50.864;12.096;2023-10-13T15:01:27;8.20;;;3.97;;
11211;SDS011;5663;50.864;12.096;2023-10-13T15:03:57;8.95;;;3.92;;
11211;SDS011;5663;50.864;12.096;2023-10-13T15:06:43;6.53;;;3.90;;
11211;SDS011;5663;50.864;12.096;2023-10-13T15:09:33;10.43;;;4.93;;
11211;SDS011;5663;50.864;12.096;2023-10-13T15:12:07;8.57;;;4.07;;
11211;SDS011;5663;50.864;12.096;2023-10-13T15:14:42;7.35;;;4.18;;
11211;SDS011;5663;50.864;12.096;2023-10-13T15:17:30;7.90;;;4.13;;
11211;SDS011;5663;50.864;12.096;2023-10-13T15:20:00;8.13;;;4.20;;
11211;SDS011;5663;50.864;12.096;2023-10-13T15:22:52;8.65;;;4.32;;
11211;SDS011;5663;50.864;12.096;2023-10-13T15:25:47;6.22;;;4.10;;
11211;SDS011;5663;50.864;12.096;2023-10-13T15:28:39;7.85;;;4.10;;
11211;SDS011;5663;50.864;12.096;2023-10-13T15:31:14;6.85;;;4.10;;
11211;SDS011;5663;50.864;12.096;2023-10-13T15:34:12;9.25;;;4.45;;
11211;SDS011;5663;50.864;12.096;2023-10-13T15:36:40;8.63;;;4.40;;
11211;SDS011;5663;50.864;12.096;2023-10-13T15:39:17;7.53;;;4.03;;
11211;SDS011;5663;50.864;12.096;2023-10-13T15:41:55;6.85;;;4.68;;
11211;SDS011;5663;50.864;12.096;2023-10-13T15:44:38;8.93;;;4.28;;
11211;SDS011;5663;50.864;12.096;2023-10-13T15:47:19;7.00;;;3.88;;
11211;SDS011;5663;50.864;12.096;2023-10-13T15:50:06;7.25;;;3.75;;
11211;SDS011;5663;50.864;12.096;2023-10-13T15:52:42;6.13;;;3.90;;
11211;SDS011;5663;50.864;12.096;2023-10-13T15:55:21;13.15;;;4.32;;
11211;SDS011;5663;50.864;12.096;2023-10-13T15:58:01;16.23;;;5.13;;
11211;SDS011;5663;50.864;12.096;2023-10-13T16:00:40;6.78;;;3.92;;
11211;SDS011;5663;50.864;12.096;2023-10-13T16:03:24;6.78;;;3.90;;
11211;SDS011;5663;50.864;12.096;2023-10-13T16:07:12;9.38;;;4.78;;
11211;SDS011;5663;50.864;12.096;2023-10-13T16:12:22;12.48;;;4.20;;
11211;SDS011;5663;50.864;12.096;2023-10-13T16:15:05;9.27;;;4.38;;
11211;SDS011;5663;50.864;12.096;2023-10-13T16:17:45;6.68;;;4.18;;
11211;SDS011;5663;50.864;12.096;2023-10-13T16:20:45;9.10;;;4.40;;
11211;SDS011;5663;50.864;12.096;2023-10-13T16:23:26;7.25;;;4.40;;
11211;SDS011;5663;50.864;12.096;2023-10-13T16:25:56;6.82;;;4.30;;
11211;SDS011;5663;50.864;12.096;2023-10-13T16:28:52;6.95;;;4.90;;
11211;SDS011;5663;50.864;12.096;2023-10-13T16:31:28;7.32;;;3.95;;